Time;durP1;ratioP1;P1;durP2;ratioP2;P2;SDS_P1;SDS_P2;PMS_P1;PMS_P2;Temp;Humidity;BMP_temperature;BMP_pressure;BME280_temperature;BME280_humidity;BME280_pressure;Samples;Min_cycle;Max_cycle;Signal;HPM_P1;HPM_P2
2023/10/08 00:01:44;;;;;;;0.40;0.30;;;;;;;11.75;76.48;100080.31;31215196;28;97898;-58
2023/10/08 00:16:49;;;;;;;0.98;0.40;;;;;;;11.60;76.40;100093.63;31214236;28;97410;-61
2023/10/08 00:31:50;;;;;;;1.60;0.50;;;;;;;11.62;76.84;100096.94;31211519;28;97048;-62
2023/10/08 00:46:50;;;;;;;0.93;0.55;;;;;;;11.60;77.19;100106.94;31192567;28;98622;-63
2023/10/08 01:01:54;;;;;;;1.27;0.50;;;;;;;11.34;77.11;100105.47;31211509;28;97295;-68
2023/10/08 01:16:55;;;;;;;1.03;0.40;;;;;;;11.29;76.88;100082.00;31208833;28;97006;-69
2023/10/08 01:31:56;;;;;;;2.07;0.50;;;;;;;11.29;77.38;100113.16;31207573;28;97081;-60
2023/10/08 01:46:58;;;;;;;2.37;0.60;;;;;;;11.27;77.21;100117.84;31223309;27;97378;-61
2023/10/08 02:01:58;;;;;;;3.93;0.73;;;;;;;11.01;77.04;100169.66;31227094;28;96726;-57
2023/10/08 02:17:01;;;;;;;5.20;1.33;;;;;;;10.84;76.80;100177.72;31226518;28;97386;-60
2023/10/08 02:32:01;;;;;;;1.43;0.50;;;;;;;10.77;77.49;100227.38;31225124;28;98003;-59
2023/10/08 02:47:03;;;;;;;2.05;0.70;;;;;;;10.75;77.57;100256.00;31220935;27;97138;-60
2023/10/08 03:02:03;;;;;;;2.87;0.60;;;;;;;10.50;77.55;100280.03;31220638;28;96947;-59
2023/10/08 03:17:07;;;;;;;3.28;0.98;;;;;;;10.30;77.94;100274.16;31219351;28;97324;-61
2023/10/08 03:32:13;;;;;;;;;;;;;;;10.14;77.56;100306.09;31217814;28;97188;-62
2023/10/08 03:47:14;;;;;;;4.40;1.10;;;;;;;10.03;78.31;100325.06;31217098;28;97890;-59
2023/10/08 04:02:22;;;;;;;4.03;0.93;;;;;;;10.01;78.48;100357.16;31213317;28;97939;-60
2023/10/08 04:17:22;;;;;;;2.03;0.63;;;;;;;10.01;78.97;100367.81;31210926;28;96754;-59
2023/10/08 04:32:24;;;;;;;3.35;1.00;;;;;;;9.91;79.06;100348.47;31210585;28;112375;-65
2023/10/08 04:47:31;;;;;;;4.17;1.50;;;;;;;9.74;78.83;100355.59;31209187;27;97395;-63
2023/10/08 05:02:48;;;;;;;3.87;1.10;;;;;;;9.72;78.87;100398.31;31207005;28;97398;-68
2023/10/08 05:48:15;;;;;;;4.90;1.27;;;;;;;10.08;79.03;100528.53;31226084;27;97145;-62
2023/10/08 06:04:00;;;;;;;6.47;1.93;;;;;;;10.20;79.49;100553.06;31225422;28;97000;-59
2023/10/08 06:18:43;;;;;;;5.37;3.33;;;;;;;10.37;79.07;100593.94;31219329;28;97960;-65
2023/10/08 06:33:44;;;;;;;11.20;4.03;;;;;;;10.88;78.55;100620.63;31220649;27;97397;-63
2023/10/08 06:48:45;;;;;;;5.47;3.27;;;;;;;11.44;78.77;100658.28;31216997;27;96757;-59
2023/10/08 07:03:46;;;;;;;10.27;2.93;;;;;;;13.21;78.66;100691.34;31217500;28;96723;-59
2023/10/08 07:18:52;;;;;;;4.73;2.30;;;;;;;14.21;74.88;100723.66;31200562;28;96740;-59
2023/10/08 07:33:56;;;;;;;2.43;1.63;;;;;;;15.77;72.36;100750.53;31214998;28;97313;-59
2023/10/08 07:48:58;;;;;;;3.10;1.53;;;;;;;17.44;68.58;100777.84;31214076;28;96666;-60
2023/10/08 08:03:58;;;;;;;2.77;1.27;;;;;;;19.42;64.36;100773.72;31212821;28;97598;-65
2023/10/08 08:18:59;;;;;;;5.90;1.20;;;;;;;20.79;56.42;100817.56;31210591;28;118057;-70
2023/10/08 08:33:59;;;;;;;3.57;0.60;;;;;;;30.10;42.38;100834.84;31209633;28;97976;-73
2023/10/08 08:49:03;;;;;;;5.00;0.93;;;;;;;36.99;27.25;100861.09;31207303;28;97224;-64
2023/10/08 09:04:05;;;;;;;2.07;0.80;;;;;;;41.25;20.06;100864.53;31205509;28;97746;-76
2023/10/08 09:19:11;;;;;;;2.10;0.67;;;;;;;43.08;15.71;100869.34;31206665;28;97220;-66
2023/10/08 09:34:16;;;;;;;1.27;0.80;;;;;;;45.00;13.11;100892.03;31204363;28;97043;-73
2023/10/08 09:49:24;;;;;;;0.80;0.30;;;;;;;45.60;11.10;100916.16;31201834;27;96780;-74
2023/10/08 10:04:25;;;;;;;3.47;0.77;;;;;;;46.78;10.29;100937.44;31215579;28;97242;-60
2023/10/08 10:19:26;;;;;;;2.27;0.60;;;;;;;48.65;8.67;100947.38;31221319;28;97243;-60
2023/10/08 10:34:28;;;;;;;1.23;0.70;;;;;;;49.24;7.68;100948.50;31219815;28;97552;-61
2023/10/08 10:49:32;;;;;;;1.42;0.50;;;;;;;50.59;6.26;100950.03;31219204;27;96753;-62
2023/10/08 11:04:45;;;;;;;2.00;0.60;;;;;;;49.58;6.66;100951.38;31217078;28;97238;-59
2023/10/08 11:19:46;;;;;;;1.23;0.67;;;;;;;51.45;5.90;100950.59;31217114;27;97075;-61
2023/10/08 11:34:49;;;;;;;2.67;0.40;;;;;;;52.60;4.74;100952.16;31215217;28;97503;-61
2023/10/08 11:49:54;;;;;;;2.33;0.53;;;;;;;50.41;5.28;100941.03;31214171;27;97569;-60
2023/10/08 12:04:57;;;;;;;1.73;0.40;;;;;;;50.43;4.98;100936.53;31212226;28;97327;-59
2023/10/08 12:20:12;;;;;;;1.63;0.70;;;;;;;50.85;4.51;100938.31;31208985;27;97413;-60
2023/10/08 12:35:14;;;;;;;1.07;0.40;;;;;;;52.27;4.17;100932.25;31208643;28;98074;-78
2023/10/08 12:50:16;;;;;;;1.63;0.50;;;;;;;47.54;5.93;100923.31;31207160;28;97087;-78
2023/10/08 13:05:21;;;;;;;2.33;0.67;;;;;;;45.78;6.32;100927.50;31206442;28;97545;-64
2023/10/08 13:20:21;;;;;;;0.87;0.50;;;;;;;42.37;7.16;100908.91;31204442;28;97465;-78
2023/10/08 13:35:22;;;;;;;1.80;0.60;;;;;;;44.50;6.74;100926.09;31211487;28;97448;-75
2023/10/08 13:50:22;;;;;;;;;;;;;;;42.48;7.25;100942.72;31226074;27;97151;-75
2023/10/08 14:05:24;;;;;;;2.90;0.70;;;;;;;38.05;8.86;100935.19;31226716;28;97008;-59
2023/10/08 14:20:31;;;;;;;1.43;0.60;;;;;;;29.00;14.44;100960.94;31223948;28;97557;-60
2023/10/08 14:50:51;;;;;;;2.80;2.60;;;;;;;32.78;11.85;100957.56;31220038;27;96774;-69
2023/10/08 15:05:52;;;;;;;1.37;0.30;;;;;;;25.40;16.88;100942.84;31217496;28;97639;-59
2023/10/08 15:20:53;;;;;;;2.73;0.77;;;;;;;20.34;21.59;100971.91;31218240;28;97415;-67
2023/10/08 15:35:53;;;;;;;1.17;0.50;;;;;;;18.21;23.91;100994.19;31215427;28;97458;-70
2023/10/08 15:50:54;;;;;;;2.63;0.60;;;;;;;15.92;26.73;101021.06;31212782;27;97615;-65
2023/10/08 16:05:55;;;;;;;1.95;0.60;;;;;;;14.17;29.53;101023.28;31194468;27;97031;-74
2023/10/08 16:20:56;;;;;;;1.23;0.52;;;;;;;12.96;32.07;101048.19;31210996;28;97411;-64
2023/10/08 16:35:58;;;;;;;1.43;0.63;;;;;;;12.09;33.74;101069.75;31208015;28;96718;-65
2023/10/08 16:51:01;;;;;;;3.30;1.00;;;;;;;11.69;35.04;101090.66;31207806;27;97363;-66
2023/10/08 17:06:07;;;;;;;4.00;1.00;;;;;;;11.49;36.31;101101.50;31205300;28;96767;-64
2023/10/08 17:21:08;;;;;;;2.23;0.90;;;;;;;11.22;37.90;101109.59;31207781;28;97701;-72
2023/10/08 17:36:08;;;;;;;10.38;1.92;;;;;;;11.16;39.39;101127.88;31204407;28;104414;-72
2023/10/08 17:51:09;;;;;;;4.47;2.10;;;;;;;11.05;40.09;101120.09;31204395;27;96787;-77
2023/10/08 18:06:16;;;;;;;7.25;3.65;;;;;;;10.87;41.97;101119.22;31202277;28;96858;-71
2023/10/08 18:21:16;;;;;;;6.03;2.00;;;;;;;10.79;42.43;101126.13;31207979;27;96800;-64
2023/10/08 18:36:17;;;;;;;8.63;3.17;;;;;;;10.58;42.89;101120.22;31219462;28;96717;-59
2023/10/08 18:51:17;;;;;;;7.63;2.60;;;;;;;10.38;44.37;101122.97;31219096;27;97416;-60
2023/10/08 19:06:18;;;;;;;9.90;3.67;;;;;;;10.31;45.07;101132.50;31219528;28;97491;-60
2023/10/08 19:21:21;;;;;;;8.80;3.15;;;;;;;10.22;46.07;101136.84;31219150;28;97092;-59
2023/10/08 19:36:22;;;;;;;6.23;2.87;;;;;;;10.30;46.88;101142.28;31215902;27;97279;-59
2023/10/08 19:51:23;;;;;;;6.80;3.40;;;;;;;10.25;47.20;101127.75;31215249;27;97012;-78
2023/10/08 20:06:25;;;;;;;13.15;5.68;;;;;;;10.20;47.74;101122.00;31212565;28;96891;-78
2023/10/08 20:21:26;;;;;;;9.80;4.23;;;;;;;9.99;49.01;101133.69;31210132;28;97036;-70
2023/10/08 20:36:28;;;;;;;7.93;4.70;;;;;;;9.88;49.08;101116.06;31208886;28;97105;-62
2023/10/08 20:51:28;;;;;;;7.23;3.70;;;;;;;9.85;49.72;101113.69;31208010;27;97551;-66
2023/10/08 21:06:28;;;;;;;9.95;5.03;;;;;;;9.72;50.41;101111.34;31190628;28;98329;-70
2023/10/08 21:21:29;;;;;;;7.40;4.38;;;;;;;9.56;51.39;101106.59;31207514;28;97181;-72
2023/10/08 21:36:29;;;;;;;9.77;4.68;;;;;;;9.51;52.78;101097.34;31205154;28;112332;-79
2023/10/08 21:51:29;;;;;;;9.48;4.03;;;;;;;9.48;53.88;101088.66;31206179;28;115132;-66
2023/10/08 22:06:33;;;;;;;7.60;3.97;;;;;;;9.43;54.68;101074.97;31227001;28;109364;-65
2023/10/08 22:21:34;;;;;;;9.67;4.00;;;;;;;9.28;55.56;101076.34;31226939;28;97121;-77
2023/10/08 22:36:47;;;;;;;10.40;3.83;;;;;;;8.94;56.27;101090.06;31224557;28;97100;-74
2023/10/08 22:51:49;;;;;;;8.33;3.07;;;;;;;8.95;57.71;101063.34;31223109;27;97258;-71
2023/10/08 23:06:50;;;;;;;6.53;2.87;;;;;;;8.93;57.55;101043.19;31220217;27;98051;-78
2023/10/08 23:21:51;;;;;;;6.03;3.60;;;;;;;8.74;58.30;101033.38;31220443;28;97917;-71
2023/10/08 23:36:55;;;;;;;7.95;4.43;;;;;;;8.50;59.45;100999.22;31218581;28;96781;-67
2023/10/08 23:52:00;;;;;;;7.60;3.97;;;;;;;8.32;60.13;100965.34;31216909;28;96952;-69
